sensor_id;sensor_type;location;lat;lon;timestamp;pressure;altitude;pressure_sealevel;temperature;humidity
56671;BME280;42545;50.054;8.306;2023-04-23T00:00:48;99252.22;;;11.21;100.00
56671;BME280;42545;50.054;8.306;2023-04-23T00:03:17;99251.34;;;11.19;100.00
56671;BME280;42545;50.054;8.306;2023-04-23T00:05:45;99253.09;;;11.19;100.00
56671;BME280;42545;50.054;8.306;2023-04-23T00:08:17;99243.41;;;11.16;100.00
56671;BME280;42545;50.054;8.306;2023-04-23T00:10:44;99247.84;;;11.17;100.00
56671;BME280;42545;50.054;8.306;2023-04-23T00:13:11;99246.06;;;11.18;100.00
56671;BME280;42545;50.054;8.306;2023-04-23T00:15:38;99251.34;;;11.18;100.00
56671;BME280;42545;50.054;8.306;2023-04-23T00:18:06;99250.47;;;11.17;100.00
56671;BME280;42545;50.054;8.306;2023-04-23T00:20:32;99246.06;;;11.18;100.00
56671;BME280;42545;50.054;8.306;2023-04-23T00:23:01;99252.22;;;11.16;100.00
56671;BME280;42545;50.054;8.306;2023-04-23T00:25:27;99253.13;;;11.17;100.00
56671;BME280;42545;50.054;8.306;2023-04-23T00:27:54;99249.56;;;11.16;100.00
56671;BME280;42545;50.054;8.306;2023-04-23T00:30:21;99251.34;;;11.16;100.00
56671;BME280;42545;50.054;8.306;2023-04-23T00:32:50;99253.09;;;11.14;100.00
56671;BME280;42545;50.054;8.306;2023-04-23T00:35:16;99241.66;;;11.12;100.00
56671;BME280;42545;50.054;8.306;2023-04-23T00:37:44;99251.34;;;11.10;100.00
56671;BME280;42545;50.054;8.306;2023-04-23T00:40:12;99261.00;;;11.11;100.00
56671;BME280;42545;50.054;8.306;2023-04-23T00:42:39;99258.38;;;11.11;100.00
56671;BME280;42545;50.054;8.306;2023-04-23T00:45:07;99257.50;;;11.10;100.00
56671;BME280;42545;50.054;8.306;2023-04-23T00:47:34;99258.38;;;11.12;100.00
56671;BME280;42545;50.054;8.306;2023-04-23T00:50:02;99253.97;;;11.13;100.00
56671;BME280;42545;50.054;8.306;2023-04-23T00:52:29;99252.22;;;11.12;100.00
56671;BME280;42545;50.054;8.306;2023-04-23T00:54:55;99242.53;;;11.12;100.00
56671;BME280;42545;50.054;8.306;2023-04-23T00:57:26;99248.69;;;11.13;100.00
56671;BME280;42545;50.054;8.306;2023-04-23T00:59:53;99251.31;;;11.11;100.00
56671;BME280;42545;50.054;8.306;2023-04-23T01:02:23;99252.22;;;11.10;100.00
56671;BME280;42545;50.054;8.306;2023-04-23T01:04:52;99250.44;;;11.11;100.00
56671;BME280;42545;50.054;8.306;2023-04-23T01:07:20;99249.59;;;11.12;100.00
56671;BME280;42545;50.054;8.306;2023-04-23T01:09:48;99249.59;;;11.12;100.00
56671;BME280;42545;50.054;8.306;2023-04-23T01:12:16;99250.44;;;11.12;100.00
56671;BME280;42545;50.054;8.306;2023-04-23T01:14:44;99249.59;;;11.12;100.00
56671;BME280;42545;50.054;8.306;2023-04-23T01:17:11;99257.50;;;11.10;100.00
56671;BME280;42545;50.054;8.306;2023-04-23T01:19:39;99248.69;;;11.10;100.00
56671;BME280;42545;50.054;8.306;2023-04-23T01:22:09;99242.50;;;11.08;100.00
56671;BME280;42545;50.054;8.306;2023-04-23T01:24:36;99244.28;;;11.10;100.00
56671;BME280;42545;50.054;8.306;2023-04-23T01:27:03;99243.41;;;11.08;100.00
56671;BME280;42545;50.054;8.306;2023-04-23T01:29:31;99246.03;;;11.07;100.00
56671;BME280;42545;50.054;8.306;2023-04-23T01:31:58;99249.56;;;11.06;100.00
56671;BME280;42545;50.054;8.306;2023-04-23T01:34:25;99259.25;;;11.05;100.00
56671;BME280;42545;50.054;8.306;2023-04-23T01:36:53;99253.94;;;11.02;100.00
56671;BME280;42545;50.054;8.306;2023-04-23T01:39:21;99259.22;;;11.02;100.00
56671;BME280;42545;50.054;8.306;2023-04-23T01:41:48;99255.72;;;11.02;100.00
56671;BME280;42545;50.054;8.306;2023-04-23T01:44:15;99256.59;;;10.99;100.00
56671;BME280;42545;50.054;8.306;2023-04-23T01:46:42;99260.09;;;10.98;100.00
56671;BME280;42545;50.054;8.306;2023-04-23T01:49:09;99263.63;;;10.97;100.00
56671;BME280;42545;50.054;8.306;2023-04-23T01:51:36;99271.56;;;10.97;100.00
56671;BME280;42545;50.054;8.306;2023-04-23T01:54:04;99279.47;;;10.97;100.00
56671;BME280;42545;50.054;8.306;2023-04-23T01:56:32;99285.59;;;10.94;100.00
56671;BME280;42545;50.054;8.306;2023-04-23T01:59:00;99288.25;;;10.94;100.00
56671;BME280;42545;50.054;8.306;2023-04-23T02:01:40;99277.69;;;10.93;100.00
56671;BME280;42545;50.054;8.306;2023-04-23T02:04:08;99277.66;;;10.91;100.00
56671;BME280;42545;50.054;8.306;2023-04-23T02:06:35;99282.09;;;10.91;100.00
56671;BME280;42545;50.054;8.306;2023-04-23T02:09:01;99275.94;;;10.90;100.00
56671;BME280;42545;50.054;8.306;2023-04-23T02:11:28;99273.28;;;10.90;100.00
56671;BME280;42545;50.054;8.306;2023-04-23T02:13:56;99264.50;;;10.88;100.00
56671;BME280;42545;50.054;8.306;2023-04-23T02:16:22;99270.63;;;10.87;100.00
56671;BME280;42545;50.054;8.306;2023-04-23T02:18:50;99270.66;;;10.89;100.00
56671;BME280;42545;50.054;8.306;2023-04-23T02:21:17;99268.00;;;10.87;100.00
56671;BME280;42545;50.054;8.306;2023-04-23T02:23:43;99265.34;;;10.86;100.00
56671;BME280;42545;50.054;8.306;2023-04-23T02:26:10;99267.97;;;10.86;100.00
56671;BME280;42545;50.054;8.306;2023-04-23T02:28:37;99271.53;;;10.86;100.00
56671;BME280;42545;50.054;8.306;2023-04-23T02:31:05;99275.03;;;10.85;100.00
56671;BME280;42545;50.054;8.306;2023-04-23T02:33:32;99267.97;;;10.86;100.00
56671;BME280;42545;50.054;8.306;2023-04-23T02:35:59;99273.25;;;10.86;100.00
56671;BME280;42545;50.054;8.306;2023-04-23T02:38:26;99279.44;;;10.85;100.00
56671;BME280;42545;50.054;8.306;2023-04-23T02:40:52;99283.84;;;10.84;100.00
56671;BME280;42545;50.054;8.306;2023-04-23T02:43:19;99287.34;;;10.85;100.00
56671;BME280;42545;50.054;8.306;2023-04-23T02:45:46;99287.34;;;10.85;100.00
56671;BME280;42545;50.054;8.306;2023-04-23T02:48:14;99285.56;;;10.84;100.00
56671;BME280;42545;50.054;8.306;2023-04-23T02:50:40;99290.00;;;10.86;100.00
56671;BME280;42545;50.054;8.306;2023-04-23T02:53:07;99293.50;;;10.85;100.00
56671;BME280;42545;50.054;8.306;2023-04-23T02:55:34;99290.00;;;10.85;100.00
56671;BME280;42545;50.054;8.306;2023-04-23T02:58:01;99292.59;;;10.78;100.00
56671;BME280;42545;50.054;8.306;2023-04-23T03:00:27;99294.38;;;10.83;100.00
56671;BME280;42545;50.054;8.306;2023-04-23T03:02:54;99288.22;;;10.81;100.00
56671;BME280;42545;50.054;8.306;2023-04-23T03:05:22;99297.00;;;10.80;100.00
56671;BME280;42545;50.054;8.306;2023-04-23T03:07:49;99292.59;;;10.78;100.00
56671;BME280;42545;50.054;8.306;2023-04-23T03:10:16;99289.06;;;10.76;100.00
56671;BME280;42545;50.054;8.306;2023-04-23T03:12:42;99287.31;;;10.74;100.00
56671;BME280;42545;50.054;8.306;2023-04-23T03:15:09;99291.72;;;10.73;100.00
56671;BME280;42545;50.054;8.306;2023-04-23T03:17:36;99287.31;;;10.72;100.00
56671;BME280;42545;50.054;8.306;2023-04-23T03:20:05;99299.63;;;10.72;100.00
56671;BME280;42545;50.054;8.306;2023-04-23T03:22:33;99296.09;;;10.70;100.00
56671;BME280;42545;50.054;8.306;2023-04-23T03:25:00;99295.19;;;10.69;100.00
56671;BME280;42545;50.054;8.306;2023-04-23T03:27:27;99295.22;;;10.66;100.00
56671;BME280;42545;50.054;8.306;2023-04-23T03:29:53;99294.31;;;10.66;100.00
56671;BME280;42545;50.054;8.306;2023-04-23T03:32:20;99289.94;;;10.65;100.00
56671;BME280;42545;50.054;8.306;2023-04-23T03:34:46;99287.28;;;10.63;100.00
56671;BME280;42545;50.054;8.306;2023-04-23T03:37:13;99289.03;;;10.63;100.00
56671;BME280;42545;50.054;8.306;2023-04-23T03:39:42;99284.63;;;10.63;100.00
56671;BME280;42545;50.054;8.306;2023-04-23T03:42:09;99290.78;;;10.62;100.00
56671;BME280;42545;50.054;8.306;2023-04-23T03:44:36;99288.13;;;10.62;100.00
56671;BME280;42545;50.054;8.306;2023-04-23T03:47:02;99286.41;;;10.61;100.00
56671;BME280;42545;50.054;8.306;2023-04-23T03:49:29;99282.88;;;10.61;100.00
56671;BME280;42545;50.054;8.306;2023-04-23T03:51:56;99279.34;;;10.60;100.00
56671;BME280;42545;50.054;8.306;2023-04-23T03:54:22;99274.97;;;10.59;100.00
56671;BME280;42545;50.054;8.306;2023-04-23T03:56:52;99282.00;;;10.57;100.00
56671;BME280;42545;50.054;8.306;2023-04-23T03:59:19;99291.63;;;10.56;100.00
56671;BME280;42545;50.054;8.306;2023-04-23T04:01:47;99294.28;;;10.56;100.00
56671;BME280;42545;50.054;8.306;2023-04-23T04:04:13;99285.47;;;10.54;100.00
56671;BME280;42545;50.054;8.306;2023-04-23T04:06:40;99287.25;;;10.54;100.00
56671;BME280;42545;50.054;8.306;2023-04-23T04:09:07;99285.50;;;10.51;100.00
56671;BME280;42545;50.054;8.306;2023-04-23T04:11:34;99285.47;;;10.50;100.00
56671;BME280;42545;50.054;8.306;2023-04-23T04:14:02;99289.84;;;10.49;100.00
56671;BME280;42545;50.054;8.306;2023-04-23T04:16:30;99289.84;;;10.51;100.00
56671;BME280;42545;50.054;8.306;2023-04-23T04:18:56;99298.66;;;10.50;100.00
56671;BME280;42545;50.054;8.306;2023-04-23T04:21:23;99303.03;;;10.51;100.00
56671;BME280;42545;50.054;8.306;2023-04-23T04:23:51;99297.75;;;10.49;100.00
56671;BME280;42545;50.054;8.306;2023-04-23T04:26:18;99308.31;;;10.48;100.00
56671;BME280;42545;50.054;8.306;2023-04-23T04:28:45;99310.06;;;10.47;100.00
56671;BME280;42545;50.054;8.306;2023-04-23T04:31:13;99309.19;;;10.47;100.00
56671;BME280;42545;50.054;8.306;2023-04-23T04:33:41;99308.31;;;10.46;100.00
56671;BME280;42545;50.054;8.306;2023-04-23T04:36:07;99307.41;;;10.46;100.00
56671;BME280;42545;50.054;8.306;2023-04-23T04:38:34;99305.66;;;10.45;100.00
56671;BME280;42545;50.054;8.306;2023-04-23T04:41:03;99309.19;;;10.45;100.00
56671;BME280;42545;50.054;8.306;2023-04-23T04:43:30;99310.06;;;10.43;100.00
56671;BME280;42545;50.054;8.306;2023-04-23T04:46:00;99304.78;;;10.41;100.00
56671;BME280;42545;50.054;8.306;2023-04-23T04:48:28;99306.53;;;10.41;100.00
56671;BME280;42545;50.054;8.306;2023-04-23T04:50:57;99303.00;;;10.40;100.00
56671;BME280;42545;50.054;8.306;2023-04-23T04:53:23;99314.44;;;10.41;100.00
56671;BME280;42545;50.054;8.306;2023-04-23T04:55:50;99308.28;;;10.42;100.00
56671;BME280;42545;50.054;8.306;2023-04-23T04:58:20;99313.53;;;10.40;100.00
56671;BME280;42545;50.054;8.306;2023-04-23T05:00:47;99312.66;;;10.39;100.00
56671;BME280;42545;50.054;8.306;2023-04-23T05:03:16;99304.75;;;10.38;100.00
56671;BME280;42545;50.054;8.306;2023-04-23T05:05:44;99307.38;;;10.38;100.00
56671;BME280;42545;50.054;8.306;2023-04-23T05:08:12;99312.66;;;10.38;100.00
56671;BME280;42545;50.054;8.306;2023-04-23T05:10:42;99310.00;;;10.38;100.00
56671;BME280;42545;50.054;8.306;2023-04-23T05:13:09;99310.00;;;10.38;100.00
56671;BME280;42545;50.054;8.306;2023-04-23T05:15:36;99307.38;;;10.36;100.00
56671;BME280;42545;50.054;8.306;2023-04-23T05:18:03;99307.38;;;10.35;100.00
56671;BME280;42545;50.054;8.306;2023-04-23T05:20:29;99311.75;;;10.34;100.00
56671;BME280;42545;50.054;8.306;2023-04-23T05:22:57;99306.47;;;10.34;100.00
56671;BME280;42545;50.054;8.306;2023-04-23T05:25:26;99309.94;;;10.30;100.00
56671;BME280;42545;50.054;8.306;2023-04-23T05:27:53;99307.28;;;10.26;100.00
56671;BME280;42545;50.054;8.306;2023-04-23T05:30:20;99309.91;;;10.23;100.00
56671;BME280;42545;50.054;8.306;2023-04-23T05:32:46;99318.66;;;10.20;100.00
56671;BME280;42545;50.054;8.306;2023-04-23T05:35:13;99313.41;;;10.17;100.00
56671;BME280;42545;50.054;8.306;2023-04-23T05:37:40;99308.97;;;10.14;100.00
56671;BME280;42545;50.054;8.306;2023-04-23T05:40:09;99315.13;;;10.12;100.00
56671;BME280;42545;50.054;8.306;2023-04-23T05:42:36;99318.63;;;10.11;100.00
56671;BME280;42545;50.054;8.306;2023-04-23T05:45:03;99316.84;;;10.08;100.00
56671;BME280;42545;50.054;8.306;2023-04-23T05:47:30;99319.56;;;10.19;100.00
56671;BME280;42545;50.054;8.306;2023-04-23T05:50:00;99324.88;;;10.28;100.00
56671;BME280;42545;50.054;8.306;2023-04-23T05:52:27;99328.53;;;10.43;100.00
56671;BME280;42545;50.054;8.306;2023-04-23T05:54:55;99325.97;;;10.66;100.00
56671;BME280;42545;50.054;8.306;2023-04-23T05:57:23;99331.34;;;10.83;100.00
56671;BME280;42545;50.054;8.306;2023-04-23T05:59:51;99329.63;;;11.00;100.00
56671;BME280;42545;50.054;8.306;2023-04-23T06:02:17;99332.31;;;11.22;100.00
56671;BME280;42545;50.054;8.306;2023-04-23T06:04:45;99328.84;;;11.40;100.00
56671;BME280;42545;50.054;8.306;2023-04-23T06:07:12;99328.84;;;11.41;100.00
56671;BME280;42545;50.054;8.306;2023-04-23T06:09:39;99320.00;;;11.41;100.00
56671;BME280;42545;50.054;8.306;2023-04-23T06:12:06;99322.66;;;11.42;100.00
56671;BME280;42545;50.054;8.306;2023-04-23T06:14:34;99313.88;;;11.43;100.00
56671;BME280;42545;50.054;8.306;2023-04-23T06:17:00;99319.16;;;11.43;100.00
56671;BME280;42545;50.054;8.306;2023-04-23T06:19:27;99329.69;;;11.40;100.00
56671;BME280;42545;50.054;8.306;2023-04-23T06:21:54;99329.69;;;11.40;100.00
56671;BME280;42545;50.054;8.306;2023-04-23T06:24:20;99338.53;;;11.39;100.00
56671;BME280;42545;50.054;8.306;2023-04-23T06:26:47;99327.06;;;11.40;100.00
56671;BME280;42545;50.054;8.306;2023-04-23T06:29:14;99330.59;;;11.44;100.00
56671;BME280;42545;50.054;8.306;2023-04-23T06:31:42;99333.25;;;11.48;100.00
56671;BME280;42545;50.054;8.306;2023-04-23T06:34:08;99340.28;;;11.57;100.00
56671;BME280;42545;50.054;8.306;2023-04-23T06:36:35;99340.28;;;11.62;100.00
56671;BME280;42545;50.054;8.306;2023-04-23T06:39:01;99332.34;;;11.59;100.00
56671;BME280;42545;50.054;8.306;2023-04-23T06:41:29;99327.97;;;11.64;100.00
56671;BME280;42545;50.054;8.306;2023-04-23T06:43:55;99325.31;;;11.74;100.00
56671;BME280;42545;50.054;8.306;2023-04-23T06:46:23;99317.38;;;11.81;100.00
56671;BME280;42545;50.054;8.306;2023-04-23T06:48:51;99316.50;;;11.86;100.00
56671;BME280;42545;50.054;8.306;2023-04-23T06:51:17;99320.91;;;11.87;100.00
56671;BME280;42545;50.054;8.306;2023-04-23T06:53:45;99312.09;;;11.85;100.00
56671;BME280;42545;50.054;8.306;2023-04-23T06:56:12;99301.53;;;11.84;100.00
56671;BME280;42545;50.054;8.306;2023-04-23T06:58:39;99305.06;;;11.83;100.00
56671;BME280;42545;50.054;8.306;2023-04-23T07:01:05;99306.81;;;11.85;100.00
56671;BME280;42545;50.054;8.306;2023-04-23T07:03:32;99308.56;;;11.86;100.00
56671;BME280;42545;50.054;8.306;2023-04-23T07:06:02;99298.00;;;11.86;100.00
56671;BME280;42545;50.054;8.306;2023-04-23T07:08:29;99286.53;;;11.86;100.00
56671;BME280;42545;50.054;8.306;2023-04-23T07:10:58;99280.41;;;11.90;100.00
56671;BME280;42545;50.054;8.306;2023-04-23T07:13:24;99272.47;;;11.98;100.00
56671;BME280;42545;50.054;8.306;2023-04-23T07:15:51;99280.38;;;12.01;100.00
56671;BME280;42545;50.054;8.306;2023-04-23T07:18:18;99290.09;;;12.03;100.00
56671;BME280;42545;50.054;8.306;2023-04-23T07:20:44;99279.50;;;12.08;100.00
56671;BME280;42545;50.054;8.306;2023-04-23T07:23:13;99292.72;;;12.06;100.00
56671;BME280;42545;50.054;8.306;2023-04-23T07:25:40;99289.19;;;12.06;100.00
56671;BME280;42545;50.054;8.306;2023-04-23T07:28:06;99288.31;;;12.04;100.00
56671;BME280;42545;50.054;8.306;2023-04-23T07:30:33;99286.56;;;12.06;100.00
56671;BME280;42545;50.054;8.306;2023-04-23T07:33:00;99290.97;;;12.08;100.00
56671;BME280;42545;50.054;8.306;2023-04-23T07:35:27;99285.66;;;12.15;100.00
56671;BME280;42545;50.054;8.306;2023-04-23T07:37:54;99288.28;;;12.19;100.00
56671;BME280;42545;50.054;8.306;2023-04-23T07:40:23;99278.59;;;12.20;100.00
56671;BME280;42545;50.054;8.306;2023-04-23T07:42:50;99287.41;;;12.23;100.00
56671;BME280;42545;50.054;8.306;2023-04-23T07:45:18;99290.06;;;12.22;100.00
56671;BME280;42545;50.054;8.306;2023-04-23T07:47:44;99283.88;;;12.20;100.00
56671;BME280;42545;50.054;8.306;2023-04-23T07:50:12;99284.75;;;12.20;100.00
56671;BME280;42545;50.054;8.306;2023-04-23T07:52:38;99288.28;;;12.19;100.00
56671;BME280;42545;50.054;8.306;2023-04-23T07:55:06;99281.25;;;12.20;100.00
56671;BME280;42545;50.054;8.306;2023-04-23T07:57:35;99290.91;;;12.24;100.00
56671;BME280;42545;50.054;8.306;2023-04-23T08:00:02;99283.84;;;12.23;100.00
56671;BME280;42545;50.054;8.306;2023-04-23T08:02:28;99277.69;;;12.24;100.00
56671;BME280;42545;50.054;8.306;2023-04-23T08:04:57;99276.81;;;12.20;100.00
56671;BME280;42545;50.054;8.306;2023-04-23T08:07:24;99275.06;;;12.28;100.00
56671;BME280;42545;50.054;8.306;2023-04-23T08:09:51;99276.78;;;12.34;100.00
56671;BME280;42545;50.054;8.306;2023-04-23T08:12:18;99275.00;;;12.42;100.00
56671;BME280;42545;50.054;8.306;2023-04-23T08:14:47;99280.28;;;12.47;100.00
56671;BME280;42545;50.054;8.306;2023-04-23T08:17:15;99272.31;;;12.52;100.00
56671;BME280;42545;50.054;8.306;2023-04-23T08:19:44;99266.13;;;12.54;100.00
56671;BME280;42545;50.054;8.306;2023-04-23T08:22:10;99271.38;;;12.60;100.00
56671;BME280;42545;50.054;8.306;2023-04-23T08:24:37;99266.09;;;12.63;100.00
56671;BME280;42545;50.054;8.306;2023-04-23T08:27:04;99266.06;;;12.69;100.00
56671;BME280;42545;50.054;8.306;2023-04-23T08:29:31;99260.75;;;12.73;100.00
56671;BME280;42545;50.054;8.306;2023-04-23T08:31:59;99259.84;;;12.77;100.00
56671;BME280;42545;50.054;8.306;2023-04-23T08:34:26;99259.78;;;12.86;100.00
56671;BME280;42545;50.054;8.306;2023-04-23T08:36:53;99263.25;;;12.96;100.00
56671;BME280;42545;50.054;8.306;2023-04-23T08:39:19;99253.50;;;13.04;100.00
56671;BME280;42545;50.054;8.306;2023-04-23T08:41:50;99248.22;;;13.02;100.00
56671;BME280;42545;50.054;8.306;2023-04-23T08:44:23;99254.38;;;13.03;100.00
56671;BME280;42545;50.054;8.306;2023-04-23T08:46:52;99252.66;;;12.99;100.00
56671;BME280;42545;50.054;8.306;2023-04-23T08:49:20;99262.38;;;12.98;100.00
56671;BME280;42545;50.054;8.306;2023-04-23T08:51:51;99264.16;;;12.93;100.00
56671;BME280;42545;50.054;8.306;2023-04-23T08:54:21;99258.00;;;12.89;100.00
56671;BME280;42545;50.054;8.306;2023-04-23T08:56:51;99252.75;;;12.80;99.72
56671;BME280;42545;50.054;8.306;2023-04-23T08:59:20;99253.69;;;12.76;99.54
56671;BME280;42545;50.054;8.306;2023-04-23T09:01:47;99260.72;;;12.77;99.39
56671;BME280;42545;50.054;8.306;2023-04-23T09:04:14;99253.63;;;12.84;100.00
56671;BME280;42545;50.054;8.306;2023-04-23T09:06:45;99246.44;;;13.01;100.00
56671;BME280;42545;50.054;8.306;2023-04-23T09:09:14;99248.94;;;13.24;99.56
56671;BME280;42545;50.054;8.306;2023-04-23T09:11:41;99240.00;;;13.45;99.18
56671;BME280;42545;50.054;8.306;2023-04-23T09:14:08;99242.47;;;13.65;98.12
56671;BME280;42545;50.054;8.306;2023-04-23T09:16:35;99237.88;;;13.81;96.23
56671;BME280;42545;50.054;8.306;2023-04-23T09:19:06;99240.31;;;14.04;93.91
56671;BME280;42545;50.054;8.306;2023-04-23T09:21:35;99235.63;;;14.25;93.50
56671;BME280;42545;50.054;8.306;2023-04-23T09:24:05;99235.38;;;14.47;93.07
56671;BME280;42545;50.054;8.306;2023-04-23T09:26:31;99229.88;;;14.64;90.01
56671;BME280;42545;50.054;8.306;2023-04-23T09:28:59;99221.66;;;14.82;89.65
56671;BME280;42545;50.054;8.306;2023-04-23T09:31:27;99217.88;;;14.98;88.80
56671;BME280;42545;50.054;8.306;2023-04-23T09:33:55;99223.00;;;15.11;84.44
56671;BME280;42545;50.054;8.306;2023-04-23T09:36:22;99214.06;;;15.16;83.19
56671;BME280;42545;50.054;8.306;2023-04-23T09:38:49;99208.56;;;15.27;83.47
56671;BME280;42545;50.054;8.306;2023-04-23T09:41:21;99201.22;;;15.43;83.37
56671;BME280;42545;50.054;8.306;2023-04-23T09:43:48;99196.59;;;15.54;81.06
56671;BME280;42545;50.054;8.306;2023-04-23T09:46:14;99190.41;;;15.54;79.79
56671;BME280;42545;50.054;8.306;2023-04-23T09:48:42;99186.09;;;15.48;78.38
56671;BME280;42545;50.054;8.306;2023-04-23T09:51:12;99192.50;;;15.35;78.72
56671;BME280;42545;50.054;8.306;2023-04-23T09:53:40;99191.06;;;15.17;78.16
56671;BME280;42545;50.054;8.306;2023-04-23T09:56:07;99199.22;;;15.05;78.98
56671;BME280;42545;50.054;8.306;2023-04-23T09:58:36;99193.97;;;14.98;79.59
56671;BME280;42545;50.054;8.306;2023-04-23T10:01:07;99185.22;;;14.93;79.70
56671;BME280;42545;50.054;8.306;2023-04-23T10:03:34;99185.22;;;14.93;80.15
56671;BME280;42545;50.054;8.306;2023-04-23T10:06:00;99180.75;;;14.97;79.80
56671;BME280;42545;50.054;8.306;2023-04-23T10:08:28;99184.16;;;15.02;79.80
56671;BME280;42545;50.054;8.306;2023-04-23T10:10:57;99177.91;;;15.08;79.43
56671;BME280;42545;50.054;8.306;2023-04-23T10:13:24;99176.03;;;15.13;79.84
56671;BME280;42545;50.054;8.306;2023-04-23T10:15:53;99168.03;;;15.16;79.61
56671;BME280;42545;50.054;8.306;2023-04-23T10:18:20;99175.00;;;15.22;79.73
56671;BME280;42545;50.054;8.306;2023-04-23T10:20:49;99174.84;;;15.31;79.04
56671;BME280;42545;50.054;8.306;2023-04-23T10:23:18;99177.28;;;15.45;79.26
56671;BME280;42545;50.054;8.306;2023-04-23T10:25:47;99173.50;;;15.58;78.93
56671;BME280;42545;50.054;8.306;2023-04-23T10:28:16;99177.81;;;15.65;78.58
56671;BME280;42545;50.054;8.306;2023-04-23T10:30:46;99183.06;;;15.70;78.27
56671;BME280;42545;50.054;8.306;2023-04-23T10:33:15;99173.31;;;15.67;76.84
56671;BME280;42545;50.054;8.306;2023-04-23T10:35:43;99180.44;;;15.67;77.35
56671;BME280;42545;50.054;8.306;2023-04-23T10:38:10;99169.81;;;15.67;77.93
56671;BME280;42545;50.054;8.306;2023-04-23T10:43:20;99162.72;;;15.64;77.56
56671;BME280;42545;50.054;8.306;2023-04-23T10:45:48;99155.63;;;15.66;78.07
56671;BME280;42545;50.054;8.306;2023-04-23T10:48:17;99147.69;;;15.65;78.10
56671;BME280;42545;50.054;8.306;2023-04-23T10:50:44;99145.88;;;15.65;78.90
56671;BME280;42545;50.054;8.306;2023-04-23T10:53:18;99152.16;;;15.63;78.76
56671;BME280;42545;50.054;8.306;2023-04-23T10:55:45;99151.34;;;15.59;79.57
56671;BME280;42545;50.054;8.306;2023-04-23T10:58:12;99145.22;;;15.54;79.86
56671;BME280;42545;50.054;8.306;2023-04-23T11:00:44;99146.25;;;15.45;80.53
56671;BME280;42545;50.054;8.306;2023-04-23T11:03:36;99141.09;;;15.37;82.47
56671;BME280;42545;50.054;8.306;2023-04-23T11:06:05;99144.66;;;15.35;83.38
56671;BME280;42545;50.054;8.306;2023-04-23T11:08:34;99143.09;;;15.23;84.67
56671;BME280;42545;50.054;8.306;2023-04-23T11:11:05;99132.63;;;15.15;85.30
56671;BME280;42545;50.054;8.306;2023-04-23T11:13:33;99123.00;;;15.08;86.29
56671;BME280;42545;50.054;8.306;2023-04-23T11:16:14;99123.00;;;15.07;87.12
56671;BME280;42545;50.054;8.306;2023-04-23T11:18:57;99124.66;;;15.14;87.63
56671;BME280;42545;50.054;8.306;2023-04-23T11:21:55;99118.22;;;15.27;87.80
56671;BME280;42545;50.054;8.306;2023-04-23T11:24:22;99114.50;;;15.37;87.48
56671;BME280;42545;50.054;8.306;2023-04-23T11:26:50;99112.66;;;15.41;84.53
56671;BME280;42545;50.054;8.306;2023-04-23T11:29:20;99111.81;;;15.39;83.66
56671;BME280;42545;50.054;8.306;2023-04-23T11:31:47;99117.22;;;15.33;82.94
56671;BME280;42545;50.054;8.306;2023-04-23T11:34:18;99114.59;;;15.31;84.15
56671;BME280;42545;50.054;8.306;2023-04-23T11:36:47;99112.84;;;15.30;84.25
56671;BME280;42545;50.054;8.306;2023-04-23T11:39:15;99114.56;;;15.33;84.96
56671;BME280;42545;50.054;8.306;2023-04-23T11:41:44;99100.28;;;15.38;84.99
56671;BME280;42545;50.054;8.306;2023-04-23T11:44:12;99089.56;;;15.45;84.87
56671;BME280;42545;50.054;8.306;2023-04-23T11:46:39;99099.03;;;15.58;84.33
56671;BME280;42545;50.054;8.306;2023-04-23T11:49:06;99093.31;;;15.81;83.68
56671;BME280;42545;50.054;8.306;2023-04-23T11:51:39;99093.06;;;15.93;82.36
56671;BME280;42545;50.054;8.306;2023-04-23T11:54:06;99082.47;;;15.92;82.17
56671;BME280;42545;50.054;8.306;2023-04-23T11:56:33;99084.31;;;15.88;82.05
56671;BME280;42545;50.054;8.306;2023-04-23T11:59:01;99077.41;;;15.78;81.76
56671;BME280;42545;50.054;8.306;2023-04-23T12:01:42;99066.94;;;15.69;82.87
56671;BME280;42545;50.054;8.306;2023-04-23T12:04:13;99069.63;;;15.67;83.12
56671;BME280;42545;50.054;8.306;2023-04-23T12:06:43;99066.16;;;15.62;81.95
56671;BME280;42545;50.054;8.306;2023-04-23T12:09:11;99070.47;;;15.68;82.37
56671;BME280;42545;50.054;8.306;2023-04-23T12:11:39;99063.03;;;15.88;82.44
56671;BME280;42545;50.054;8.306;2023-04-23T12:14:06;99060.81;;;16.07;81.30
56671;BME280;42545;50.054;8.306;2023-04-23T12:16:38;99066.34;;;16.39;78.40
56671;BME280;42545;50.054;8.306;2023-04-23T12:19:08;99053.47;;;16.58;77.71
56671;BME280;42545;50.054;8.306;2023-04-23T12:21:52;99056.78;;;16.67;75.67
56671;BME280;42545;50.054;8.306;2023-04-23T12:24:21;99042.63;;;16.65;74.44
56671;BME280;42545;50.054;8.306;2023-04-23T12:26:49;99043.84;;;16.52;74.52
56671;BME280;42545;50.054;8.306;2023-04-23T12:29:19;99052.25;;;16.33;74.65
56671;BME280;42545;50.054;8.306;2023-04-23T12:31:47;99044.66;;;16.17;75.76
56671;BME280;42545;50.054;8.306;2023-04-23T12:34:16;99040.47;;;16.06;76.30
56671;BME280;42545;50.054;8.306;2023-04-23T12:36:46;99025.56;;;15.99;76.66
56671;BME280;42545;50.054;8.306;2023-04-23T12:39:23;99030.06;;;15.95;77.20
56671;BME280;42545;50.054;8.306;2023-04-23T12:41:52;99013.19;;;15.95;78.05
56671;BME280;42545;50.054;8.306;2023-04-23T12:44:19;99023.00;;;15.93;78.41
56671;BME280;42545;50.054;8.306;2023-04-23T12:46:48;99014.19;;;15.91;78.61
56671;BME280;42545;50.054;8.306;2023-04-23T12:49:16;99004.47;;;15.90;78.71
56671;BME280;42545;50.054;8.306;2023-04-23T12:51:45;99000.88;;;15.91;78.70
56671;BME280;42545;50.054;8.306;2023-04-23T12:54:11;98998.22;;;15.91;77.20
56671;BME280;42545;50.054;8.306;2023-04-23T12:56:39;99000.84;;;15.92;77.31
56671;BME280;42545;50.054;8.306;2023-04-23T12:59:07;98982.00;;;16.03;78.03